Time;durP1;ratioP1;P1;durP2;ratioP2;P2;SDS_P1;SDS_P2;PMS_P1;PMS_P2;Temp;Humidity;BMP_temperature;BMP_pressure;BME280_temperature;BME280_humidity;BME280_pressure;Samples;Min_cycle;Max_cycle;Signal;HPM_P1;HPM_P2
2023/07/12 00:00:26;;;;;;;5.28;2.97;;;19.10;99.90;;;;;;4909986;29;20052;-72
2023/07/12 05:01:46;;;;;;;6.22;2.55;;;21.60;99.90;;;;;;5730972;23;19927;-73
2023/07/12 05:04:13;;;;;;;6.88;2.50;;;21.60;99.90;;;;;;4927016;29;20040;-73
2023/07/12 05:06:39;;;;;;;6.88;2.40;;;21.70;99.90;;;;;;4926459;29;20082;-74
2023/07/12 05:09:05;;;;;;;6.47;2.65;;;21.70;99.90;;;;;;4927661;29;20032;-71
2023/07/12 05:11:31;;;;;;;4.90;2.72;;;21.80;99.90;;;;;;4927698;29;20317;-73
2023/07/12 05:13:57;;;;;;;8.85;2.78;;;21.90;99.90;;;;;;4927976;29;20301;-73
2023/07/12 05:16:22;;;;;;;7.68;2.33;;;22.10;99.90;;;;;;4927523;29;20164;-72
2023/07/12 05:18:48;;;;;;;12.27;2.97;;;22.20;99.90;;;;;;4926077;29;20028;-73
2023/07/12 05:21:14;;;;;;;5.85;2.50;;;22.20;99.90;;;;;;4927179;29;20076;-73
2023/07/12 05:23:41;;;;;;;8.07;3.03;;;22.30;99.90;;;;;;4927388;29;20032;-73
2023/07/12 05:26:07;;;;;;;7.57;2.75;;;22.40;99.90;;;;;;4927169;29;20217;-73
2023/07/12 05:28:33;;;;;;;7.95;3.00;;;22.50;99.90;;;;;;4926461;29;20051;-74
2023/07/12 05:31:06;;;;;;;6.32;2.80;;;22.50;99.90;;;;;;4927276;29;20150;-75
2023/07/12 05:33:31;;;;;;;7.90;2.63;;;22.70;99.90;;;;;;4927221;29;20207;-73
2023/07/12 05:35:57;;;;;;;7.32;2.85;;;22.80;99.90;;;;;;4927129;29;20035;-74
2023/07/12 05:38:23;;;;;;;7.65;2.70;;;22.80;99.90;;;;;;4926733;29;20035;-74
2023/07/12 05:40:49;;;;;;;6.88;3.60;;;22.90;99.90;;;;;;4927123;29;20079;-75
2023/07/12 05:43:23;;;;;;;7.22;3.20;;;22.90;99.90;;;;;;4926909;29;20068;-73
2023/07/12 05:45:48;;;;;;;6.90;2.60;;;22.90;99.90;;;;;;4927382;29;20040;-73
2023/07/12 05:48:14;;;;;;;6.97;3.42;;;22.90;99.90;;;;;;4926421;29;20060;-76
2023/07/12 05:50:40;;;;;;;8.13;3.35;;;23.00;99.90;;;;;;4927293;29;20226;-74
2023/07/12 05:53:05;;;;;;;7.22;3.28;;;23.00;99.90;;;;;;4926606;29;20035;-73
2023/07/12 05:55:31;;;;;;;7.00;3.13;;;23.10;99.90;;;;;;4927012;29;20056;-74
2023/07/12 05:57:57;;;;;;;10.13;3.88;;;23.10;99.90;;;;;;4926906;29;20054;-75
2023/07/12 06:00:23;;;;;;;7.70;3.05;;;23.20;99.90;;;;;;4925328;29;20032;-74
2023/07/12 06:02:49;;;;;;;6.40;3.22;;;23.30;99.90;;;;;;4913138;29;20037;-75
2023/07/12 06:05:14;;;;;;;7.47;3.53;;;23.40;99.90;;;;;;4907654;29;20207;-72
2023/07/12 06:07:41;;;;;;;6.28;3.28;;;23.50;99.90;;;;;;4907541;29;20156;-73
2023/07/12 06:10:08;;;;;;;8.75;3.20;;;23.60;99.90;;;;;;4907460;29;20036;-73
2023/07/12 06:12:33;;;;;;;8.48;3.30;;;23.70;99.90;;;;;;4907556;29;20052;-74
2023/07/12 06:14:59;;;;;;;10.45;3.42;;;23.70;99.90;;;;;;4909445;29;20290;-75
2023/07/12 06:17:25;;;;;;;11.13;4.28;;;23.70;99.90;;;;;;4910738;29;20030;-73
2023/07/12 06:19:50;;;;;;;7.50;3.75;;;23.80;99.90;;;;;;4907786;29;20302;-76
2023/07/12 06:22:16;;;;;;;5.60;3.10;;;23.70;99.90;;;;;;4890599;29;20029;-76
2023/07/12 06:24:42;;;;;;;6.85;3.28;;;23.80;99.90;;;;;;4907955;29;20214;-73
2023/07/12 06:27:08;;;;;;;7.85;3.70;;;23.90;99.90;;;;;;4906921;29;20085;-73
2023/07/12 06:29:34;;;;;;;6.32;3.10;;;23.80;99.90;;;;;;4906015;29;20087;-72
2023/07/12 06:31:59;;;;;;;8.88;3.42;;;23.80;99.90;;;;;;4907745;29;20025;-75
2023/07/12 06:34:25;;;;;;;5.30;3.10;;;23.90;99.90;;;;;;4906973;29;20063;-75
2023/07/12 06:36:51;;;;;;;8.68;3.63;;;24.00;99.90;;;;;;4907477;29;20032;-73
2023/07/12 06:39:17;;;;;;;5.75;3.20;;;24.10;99.90;;;;;;4906366;29;20063;-73
2023/07/12 06:41:43;;;;;;;8.55;3.55;;;24.30;99.90;;;;;;4907024;29;20029;-75
2023/07/12 06:44:08;;;;;;;5.82;3.20;;;24.40;99.90;;;;;;4906167;29;20032;-73
2023/07/12 06:46:34;;;;;;;8.93;3.50;;;24.50;99.90;;;;;;4921657;29;20032;-73
2023/07/12 06:49:00;;;;;;;7.88;3.30;;;24.70;99.90;;;;;;4906869;29;20072;-75
2023/07/12 06:51:25;;;;;;;7.45;3.22;;;24.90;99.90;;;;;;4906959;29;20468;-74
2023/07/12 06:53:51;;;;;;;7.80;3.40;;;24.90;99.90;;;;;;4906922;29;20037;-75
2023/07/12 06:56:17;;;;;;;7.45;3.28;;;25.00;99.90;;;;;;4906097;29;20036;-77
2023/07/12 06:58:43;;;;;;;7.80;3.10;;;25.00;99.90;;;;;;4922066;29;20100;-75
2023/07/12 07:01:10;;;;;;;8.07;3.72;;;25.00;99.90;;;;;;4906406;29;20095;-74
2023/07/12 07:03:37;;;;;;;5.60;2.88;;;25.20;99.90;;;;;;4906773;29;20113;-71
2023/07/12 07:06:03;;;;;;;6.43;3.15;;;25.30;99.90;;;;;;4907331;29;20095;-73
2023/07/12 07:08:29;;;;;;;6.25;2.90;;;25.50;99.90;;;;;;4906498;29;20052;-72
2023/07/12 07:10:56;;;;;;;8.02;3.20;;;25.50;99.90;;;;;;4907091;29;20207;-75
2023/07/12 07:13:23;;;;;;;6.68;3.08;;;25.50;99.90;;;;;;4909480;29;20111;-72
2023/07/12 07:15:50;;;;;;;8.48;3.47;;;25.30;99.90;;;;;;4925728;29;20078;-75
2023/07/12 07:18:16;;;;;;;6.05;2.70;;;25.30;99.90;;;;;;4910222;29;20207;-73
2023/07/12 07:20:43;;;;;;;7.60;2.85;;;25.20;99.90;;;;;;4910988;29;20041;-74
2023/07/12 07:23:10;;;;;;;8.25;3.13;;;25.10;99.90;;;;;;4909951;29;20024;-73
2023/07/12 07:25:38;;;;;;;8.20;2.97;;;25.20;99.90;;;;;;4910778;29;20044;-74
2023/07/12 07:28:04;;;;;;;6.03;2.65;;;25.30;99.90;;;;;;4910846;29;20332;-73
2023/07/12 07:30:31;;;;;;;7.80;3.33;;;25.30;99.90;;;;;;4910381;29;20028;-71
2023/07/12 07:33:00;;;;;;;4.70;2.63;;;25.40;99.90;;;;;;4910733;29;20040;-74
2023/07/12 07:35:26;;;;;;;7.45;2.72;;;25.50;99.70;;;;;;4909773;29;20033;-71
2023/07/12 07:37:52;;;;;;;7.05;2.58;;;25.50;99.50;;;;;;4909543;29;20307;-70
2023/07/12 07:40:18;;;;;;;8.48;2.97;;;25.50;99.10;;;;;;4910057;29;20033;-72
2023/07/12 07:42:44;;;;;;;7.63;3.28;;;25.40;98.60;;;;;;4910441;29;20041;-72
2023/07/12 07:45:10;;;;;;;4.90;2.63;;;25.30;99.30;;;;;;4909726;29;20104;-72
2023/07/12 07:47:37;;;;;;;8.57;2.72;;;25.30;99.00;;;;;;4910678;29;20031;-72
2023/07/12 07:50:05;;;;;;;6.78;2.42;;;25.40;99.30;;;;;;4929239;29;20044;-70
2023/07/12 07:52:31;;;;;;;5.45;2.53;;;25.50;99.30;;;;;;4917461;29;20033;-72
2023/07/12 07:54:56;;;;;;;4.65;2.65;;;25.50;98.60;;;;;;4909120;29;20047;-73
2023/07/12 07:57:22;;;;;;;4.70;2.20;;;25.50;97.90;;;;;;4909705;29;20055;-76
2023/07/12 07:59:48;;;;;;;5.38;2.40;;;25.60;98.10;;;;;;4910604;29;20188;-75
2023/07/12 08:02:14;;;;;;;6.20;2.60;;;25.80;98.00;;;;;;4908925;29;20044;-75
2023/07/12 08:04:40;;;;;;;6.00;2.60;;;25.70;97.90;;;;;;4920762;29;20339;-76
2023/07/12 08:07:07;;;;;;;7.25;3.40;;;25.80;97.40;;;;;;4913995;29;20041;-75
2023/07/12 08:09:36;;;;;;;6.88;2.42;;;25.80;97.80;;;;;;4909062;29;20036;-75
2023/07/12 08:12:03;;;;;;;6.03;2.80;;;25.90;97.50;;;;;;4909417;29;20065;-77
2023/07/12 08:14:29;;;;;;;3.97;2.28;;;25.90;97.70;;;;;;4909111;29;20072;-75
2023/07/12 08:16:55;;;;;;;7.32;2.45;;;25.90;96.70;;;;;;4910181;29;20064;-78
2023/07/12 08:19:22;;;;;;;7.60;3.03;;;26.00;96.50;;;;;;4908794;29;20028;-76
2023/07/12 08:21:49;;;;;;;5.95;2.38;;;26.00;96.30;;;;;;4909340;29;20024;-72
2023/07/12 08:24:15;;;;;;;5.75;2.65;;;26.10;96.80;;;;;;4908524;29;20032;-75
2023/07/12 08:26:41;;;;;;;5.80;2.58;;;26.20;97.00;;;;;;4909536;29;20104;-74
2023/07/12 08:29:07;;;;;;;4.82;2.45;;;26.40;96.70;;;;;;4909580;29;20033;-78
2023/07/12 08:31:33;;;;;;;5.68;2.70;;;26.60;96.00;;;;;;4908813;29;20044;-75
2023/07/12 08:33:59;;;;;;;6.03;2.42;;;26.70;95.30;;;;;;4909053;29;20059;-75
2023/07/12 08:36:25;;;;;;;6.15;2.40;;;26.70;95.20;;;;;;4908394;29;20130;-74
2023/07/12 08:38:51;;;;;;;5.53;2.35;;;26.80;94.50;;;;;;4894370;29;20033;-74
2023/07/12 08:41:19;;;;;;;5.82;2.45;;;26.70;94.00;;;;;;4889989;29;20035;-75
2023/07/12 08:43:46;;;;;;;5.78;2.50;;;26.70;94.50;;;;;;4890224;29;20040;-72
2023/07/12 08:46:19;;;;;;;9.27;2.90;;;26.60;94.70;;;;;;4890495;29;20089;-73
2023/07/12 08:48:45;;;;;;;7.57;2.63;;;26.50;95.20;;;;;;4890874;29;20044;-73
2023/07/12 08:51:27;;;;;;;6.20;2.50;;;26.60;94.70;;;;;;4905190;29;20033;-74
2023/07/12 08:53:54;;;;;;;4.85;2.30;;;26.70;93.90;;;;;;4909297;29;20087;-72
2023/07/12 08:56:20;;;;;;;5.45;2.30;;;26.80;94.10;;;;;;4908387;29;20203;-74
2023/07/12 08:58:51;;;;;;;6.03;2.60;;;26.80;93.30;;;;;;4923732;29;20063;-75
2023/07/12 09:01:36;;;;;;;6.00;2.80;;;26.80;94.30;;;;;;4908131;29;20032;-73
2023/07/12 09:04:26;;;;;;;5.47;2.40;;;27.00;93.50;;;;;;4909072;29;20033;-72
2023/07/12 09:06:59;;;;;;;4.97;2.40;;;27.10;93.20;;;;;;4904337;29;20033;-71
2023/07/12 09:09:27;;;;;;;6.68;2.28;;;27.20;92.70;;;;;;4907170;29;20305;-72
2023/07/12 09:11:54;;;;;;;;;;;27.30;92.70;;;;;;4909244;29;20044;-74
2023/07/12 09:14:22;;;;;;;6.85;2.20;;;27.50;92.40;;;;;;4908098;29;19942;-74
2023/07/12 09:16:49;;;;;;;;;;;27.70;92.10;;;;;;4908891;29;20032;-72
2023/07/12 09:19:23;;;;;;;8.77;3.15;;;27.80;91.60;;;;;;4904609;29;19907;-74
2023/07/12 09:22:05;;;;;;;4.22;1.98;;;27.90;90.90;;;;;;4908288;29;20230;-73
2023/07/12 09:24:32;;;;;;;4.50;2.15;;;28.20;91.00;;;;;;4922655;29;20255;-75
2023/07/12 09:27:06;;;;;;;4.60;2.28;;;28.30;90.40;;;;;;4908423;29;20036;-73
2023/07/12 09:29:35;;;;;;;2.97;1.63;;;28.30;89.40;;;;;;4907981;29;20043;-75
2023/07/12 09:32:07;;;;;;;3.67;2.08;;;28.10;89.20;;;;;;4908124;29;20088;-74
2023/07/12 09:34:40;;;;;;;3.88;2.30;;;28.20;89.40;;;;;;4907751;29;20021;-74
2023/07/12 09:37:14;;;;;;;5.65;2.00;;;28.30;89.20;;;;;;4908325;29;20051;-72
2023/07/12 09:39:40;;;;;;;4.07;2.05;;;28.40;89.10;;;;;;4907658;29;20036;-73
2023/07/12 09:42:10;;;;;;;4.72;1.90;;;28.40;89.70;;;;;;4908052;29;20275;-74
2023/07/12 09:44:36;;;;;;;5.13;2.38;;;28.60;88.60;;;;;;4907408;29;20036;-73
2023/07/12 09:47:06;;;;;;;5.70;2.33;;;28.70;87.90;;;;;;4907849;29;20100;-73
2023/07/12 09:49:53;;;;;;;4.65;1.90;;;28.70;87.70;;;;;;4907211;29;20036;-73
2023/07/12 09:52:27;;;;;;;4.32;2.40;;;28.70;87.50;;;;;;4906368;29;20041;-73
2023/07/12 09:55:04;;;;;;;5.90;2.38;;;28.60;88.20;;;;;;4907947;29;20071;-73
2023/07/12 09:57:54;;;;;;;4.00;2.13;;;28.60;87.10;;;;;;4907360;29;20036;-73
2023/07/12 10:00:53;;;;;;;8.18;2.00;;;28.60;87.40;;;;;;4907363;29;20110;-72
2023/07/12 10:03:19;;;;;;;5.20;2.00;;;28.70;86.20;;;;;;4906373;29;20092;-71
2023/07/12 10:05:52;;;;;;;4.95;2.50;;;28.90;85.30;;;;;;4907880;29;20472;-74
2023/07/12 10:08:20;;;;;;;6.35;2.22;;;29.30;85.30;;;;;;4907035;29;20095;-73
2023/07/12 10:10:57;;;;;;;3.30;2.50;;;29.50;83.30;;;;;;4907575;29;20036;-73
2023/07/12 10:13:42;;;;;;;4.82;1.83;;;29.60;82.20;;;;;;4907453;29;20099;-75
2023/07/12 10:16:26;;;;;;;5.53;2.15;;;29.60;82.50;;;;;;4907803;29;20033;-74
2023/07/12 10:18:52;;;;;;;5.40;2.35;;;29.90;80.90;;;;;;4907717;29;20260;-72
2023/07/12 10:21:25;;;;;;;4.85;2.38;;;30.10;81.10;;;;;;4907378;29;20028;-72
2023/07/12 10:23:53;;;;;;;4.97;2.47;;;30.10;79.60;;;;;;4907559;29;20025;-73
2023/07/12 10:26:19;;;;;;;3.63;2.30;;;30.20;78.70;;;;;;4907498;29;20060;-74
2023/07/12 10:29:04;;;;;;;4.35;2.05;;;30.40;80.10;;;;;;4907254;29;20360;-74
2023/07/12 10:31:56;;;;;;;6.00;2.42;;;30.30;80.40;;;;;;4906514;29;20024;-73
2023/07/12 10:34:30;;;;;;;5.88;2.30;;;30.40;79.30;;;;;;4906764;29;20160;-73
2023/07/12 10:36:57;;;;;;;7.88;2.72;;;30.00;78.00;;;;;;4907547;29;20040;-71
2023/07/12 10:39:27;;;;;;;6.55;2.33;;;29.60;78.80;;;;;;4907093;29;20044;-72
2023/07/12 10:42:11;;;;;;;5.53;2.53;;;29.90;79.80;;;;;;4907413;29;20036;-72
2023/07/12 10:44:44;;;;;;;4.88;1.92;;;30.20;79.60;;;;;;4906670;29;20042;-72
2023/07/12 10:47:17;;;;;;;3.55;2.22;;;30.40;79.40;;;;;;4907225;29;20318;-70
2023/07/12 10:49:45;;;;;;;4.55;2.00;;;30.40;78.60;;;;;;4925461;29;20041;-71
2023/07/12 10:52:10;;;;;;;5.43;2.00;;;30.50;77.20;;;;;;4911001;29;20222;-72
2023/07/12 10:54:36;;;;;;;6.18;3.28;;;31.00;77.60;;;;;;4910700;29;20055;-71
2023/07/12 10:57:06;;;;;;;4.40;2.08;;;31.20;77.00;;;;;;4911147;29;20033;-72
2023/07/12 10:59:35;;;;;;;5.80;2.20;;;31.00;77.00;;;;;;4910698;29;20032;-71
2023/07/12 11:02:03;;;;;;;3.08;2.10;;;31.10;76.00;;;;;;4910769;29;20052;-70
2023/07/12 11:04:29;;;;;;;5.32;2.55;;;31.20;75.30;;;;;;4910785;29;20302;-71
2023/07/12 11:07:12;;;;;;;5.82;2.00;;;31.30;74.30;;;;;;4910581;29;20056;-72
2023/07/12 11:09:45;;;;;;;3.83;2.10;;;31.40;74.50;;;;;;4910465;29;20087;-70
2023/07/12 11:12:16;;;;;;;6.15;2.40;;;31.10;75.30;;;;;;4910911;29;20033;-73
2023/07/12 11:14:51;;;;;;;4.45;2.13;;;31.20;74.10;;;;;;4910099;29;20249;-71
2023/07/12 11:17:21;;;;;;;5.95;2.42;;;31.50;73.10;;;;;;4910677;29;20037;-71
2023/07/12 11:20:06;;;;;;;3.92;2.05;;;31.30;73.40;;;;;;4910857;29;20036;-72
2023/07/12 11:22:49;;;;;;;5.32;1.98;;;31.50;73.00;;;;;;4910121;29;20327;-73
2023/07/12 11:25:29;;;;;;;4.00;2.33;;;31.70;73.70;;;;;;4910526;29;20063;-71
2023/07/12 11:28:01;;;;;;;4.72;2.50;;;32.00;73.00;;;;;;4910716;29;20029;-72
2023/07/12 11:30:27;;;;;;;4.43;2.42;;;32.30;70.40;;;;;;4909939;29;20084;-71
2023/07/12 11:33:07;;;;;;;3.92;2.17;;;32.30;70.80;;;;;;4909351;29;20068;-71
2023/07/12 11:36:04;;;;;;;5.32;2.60;;;32.10;70.60;;;;;;4909812;29;20043;-72
2023/07/12 11:38:33;;;;;;;;;;;31.90;71.00;;;;;;4906290;29;20052;-70
2023/07/12 11:41:13;;;;;;;4.22;2.33;;;31.90;69.90;;;;;;4910020;29;19950;-72
2023/07/12 11:43:40;;;;;;;7.10;2.88;;;32.10;70.20;;;;;;4909863;29;20109;-71
2023/07/12 11:46:15;;;;;;;7.43;2.88;;;32.60;70.20;;;;;;4910211;29;20021;-74
2023/07/12 11:48:45;;;;;;;6.28;2.40;;;33.30;67.10;;;;;;4909466;29;20044;-71
2023/07/12 11:51:26;;;;;;;4.90;2.50;;;33.90;66.40;;;;;;4910359;29;20267;-73
2023/07/12 11:53:57;;;;;;;4.05;2.65;;;34.40;64.40;;;;;;4910473;29;20021;-72
2023/07/12 11:56:23;;;;;;;4.68;2.55;;;34.20;64.30;;;;;;4910348;29;20039;-71
2023/07/12 11:58:49;;;;;;;4.90;2.40;;;34.30;63.60;;;;;;4909461;29;20315;-73
2023/07/12 12:01:17;;;;;;;5.40;2.53;;;33.80;64.00;;;;;;4910085;29;20099;-71
2023/07/12 12:03:47;;;;;;;5.30;2.47;;;33.40;64.70;;;;;;4909284;29;20144;-73
2023/07/12 12:06:13;;;;;;;4.05;2.35;;;33.00;65.20;;;;;;4909930;29;20096;-72
2023/07/12 12:08:46;;;;;;;5.38;2.50;;;33.50;65.40;;;;;;4908303;29;20041;-73
2023/07/12 12:11:12;;;;;;;5.78;2.60;;;34.50;61.00;;;;;;4909908;29;20302;-72
2023/07/12 12:13:48;;;;;;;5.45;2.65;;;34.30;62.10;;;;;;4909332;29;20072;-73
2023/07/12 12:16:25;;;;;;;4.63;2.30;;;35.10;62.90;;;;;;4909899;29;20115;-73
2023/07/12 12:18:55;;;;;;;7.10;2.63;;;37.10;61.40;;;;;;4909894;29;20080;-73
2023/07/12 12:21:23;;;;;;;7.03;2.30;;;38.00;60.20;;;;;;4909519;29;20028;-72
2023/07/12 12:23:56;;;;;;;4.45;2.00;;;39.20;58.20;;;;;;4909274;29;20051;-73
2023/07/12 12:26:28;;;;;;;7.20;2.40;;;39.90;57.50;;;;;;4909751;29;20048;-73
2023/07/12 12:28:58;;;;;;;7.07;2.30;;;40.10;55.60;;;;;;4908104;29;20270;-70
2023/07/12 12:31:27;;;;;;;3.60;2.13;;;39.50;55.50;;;;;;4908362;29;20382;-71
2023/07/12 12:34:13;;;;;;;5.80;2.05;;;39.80;55.30;;;;;;4909472;29;20194;-72
2023/07/12 12:36:54;;;;;;;8.25;2.70;;;38.90;55.60;;;;;;4908916;29;20060;-71
2023/07/12 12:39:21;;;;;;;7.35;2.42;;;39.20;55.70;;;;;;4909670;29;20029;-70
2023/07/12 12:42:17;;;;;;;5.77;2.50;;;39.40;55.30;;;;;;4908909;29;20296;-71
2023/07/12 12:44:43;;;;;;;5.38;1.95;;;40.00;55.20;;;;;;4904097;29;20100;-73
2023/07/12 12:47:17;;;;;;;6.00;2.45;;;41.40;54.40;;;;;;4909517;29;20112;-72
2023/07/12 12:49:43;;;;;;;5.20;2.20;;;41.90;53.70;;;;;;4909063;29;20028;-71
2023/07/12 12:52:33;;;;;;;4.90;2.20;;;41.40;53.30;;;;;;4908994;29;20032;-74
2023/07/12 12:55:01;;;;;;;4.32;2.40;;;41.10;53.90;;;;;;4900814;29;20045;-71
2023/07/12 12:57:29;;;;;;;5.72;2.03;;;41.40;52.80;;;;;;4908841;29;20349;-71
2023/07/12 12:59:55;;;;;;;4.90;2.50;;;41.90;52.00;;;;;;4908905;29;20297;-72
2023/07/12 13:02:21;;;;;;;5.53;2.13;;;41.60;50.00;;;;;;4908643;29;20048;-71
2023/07/12 13:04:47;;;;;;;4.68;2.63;;;39.70;51.20;;;;;;4906347;29;20039;-73
2023/07/12 13:07:33;;;;;;;6.13;2.63;;;37.70;53.40;;;;;;4906984;29;20047;-72
2023/07/12 13:10:00;;;;;;;4.40;2.83;;;36.20;57.20;;;;;;4908303;29;20043;-73
2023/07/12 13:12:28;;;;;;;4.47;2.88;;;34.90;58.40;;;;;;4908650;29;20210;-71
2023/07/12 13:14:54;;;;;;;4.85;2.70;;;34.40;59.90;;;;;;4908654;29;20096;-72
2023/07/12 13:17:23;;;;;;;3.92;2.55;;;34.20;60.20;;;;;;4891645;29;20306;-70
2023/07/12 13:19:51;;;;;;;4.43;2.80;;;33.70;61.00;;;;;;4908290;29;20032;-71
2023/07/12 13:22:18;;;;;;;;;;;33.70;62.20;;;;;;4908923;29;20218;-72
2023/07/12 13:24:44;;;;;;;4.90;2.50;;;34.80;60.60;;;;;;4907985;29;20216;-72
2023/07/12 13:27:16;;;;;;;4.68;2.85;;;37.50;57.20;;;;;;4908272;29;20214;-72
2023/07/12 13:29:45;;;;;;;6.22;2.55;;;39.40;55.10;;;;;;4907864;29;20037;-73
2023/07/12 13:32:14;;;;;;;6.50;2.45;;;40.70;51.60;;;;;;4906886;29;20370;-72
2023/07/12 13:34:41;;;;;;;4.75;2.28;;;40.00;51.20;;;;;;4908030;29;20060;-71
2023/07/12 13:37:19;;;;;;;4.93;2.50;;;38.70;52.40;;;;;;4908577;29;20349;-72
2023/07/12 13:39:46;;;;;;;6.90;2.50;;;37.50;54.60;;;;;;4907510;29;20036;-72
2023/07/12 13:42:12;;;;;;;4.05;2.63;;;36.20;56.60;;;;;;4908146;29;20020;-73
2023/07/12 13:44:39;;;;;;;5.55;2.42;;;35.60;58.20;;;;;;4907591;29;20024;-71
2023/07/12 13:47:15;;;;;;;5.80;2.70;;;36.90;56.90;;;;;;4907906;29;20041;-71
2023/07/12 13:49:41;;;;;;;4.38;2.47;;;37.00;56.40;;;;;;4907479;29;20806;-71
2023/07/12 13:52:16;;;;;;;4.63;2.53;;;37.30;56.10;;;;;;4907763;29;20029;-72
2023/07/12 13:54:41;;;;;;;5.32;2.25;;;37.80;55.50;;;;;;4907440;29;20104;-72
2023/07/12 13:57:10;;;;;;;3.80;2.40;;;37.00;56.30;;;;;;4908165;29;20314;-70
2023/07/12 13:59:36;;;;;;;4.60;2.20;;;38.50;55.00;;;;;;4907356;29;20091;-71
2023/07/12 14:02:15;;;;;;;4.50;2.03;;;39.60;53.80;;;;;;4907568;29;20056;-70
2023/07/12 14:04:40;;;;;;;4.07;1.98;;;40.70;52.60;;;;;;4907469;29;20323;-73
2023/07/12 14:07:10;;;;;;;4.72;1.80;;;41.70;52.10;;;;;;4907544;29;20051;-72
2023/07/12 14:09:37;;;;;;;4.85;1.90;;;42.10;50.70;;;;;;4907550;29;20033;-71
2023/07/12 14:12:05;;;;;;;4.60;2.00;;;41.00;51.30;;;;;;4907603;29;20060;-72
2023/07/12 14:14:31;;;;;;;7.05;2.00;;;40.50;52.30;;;;;;4907654;29;20039;-73
2023/07/12 14:16:57;;;;;;;4.30;1.83;;;39.50;52.80;;;;;;4907308;29;20064;-71
2023/07/12 14:19:22;;;;;;;4.07;2.10;;;39.70;53.30;;;;;;4907599;29;20046;-72
2023/07/12 14:21:49;;;;;;;4.03;1.73;;;39.50;53.50;;;;;;4906267;29;20059;-72
2023/07/12 14:24:14;;;;;;;3.92;1.65;;;39.10;53.70;;;;;;4907829;29;20044;-71
2023/07/12 14:26:40;;;;;;;5.50;1.95;;;38.90;53.70;;;;;;4906852;29;20120;-71
2023/07/12 14:29:06;;;;;;;4.45;1.70;;;40.10;52.90;;;;;;4907656;29;20043;-71
2023/07/12 14:31:34;;;;;;;4.68;1.80;;;39.20;53.30;;;;;;4907654;29;20036;-71
2023/07/12 14:33:59;;;;;;;3.63;1.75;;;37.90;54.80;;;;;;4907640;29;20048;-71
2023/07/12 14:36:28;;;;;;;4.05;2.13;;;36.40;55.90;;;;;;4907774;29;20040;-70
2023/07/12 14:38:54;;;;;;;3.28;1.85;;;36.00;56.90;;;;;;4906926;29;20789;-71
2023/07/12 14:41:26;;;;;;;3.05;1.80;;;36.90;55.80;;;;;;4907393;29;20029;-71
2023/07/12 14:43:56;;;;;;;6.03;1.95;;;36.30;56.10;;;;;;4907094;29;20029;-71
2023/07/12 14:46:22;;;;;;;3.17;2.10;;;35.40;57.00;;;;;;4906908;29;20028;-71
2023/07/12 14:48:48;;;;;;;4.20;2.08;;;35.50;57.80;;;;;;4906231;29;20036;-72
2023/07/12 14:51:20;;;;;;;5.18;1.95;;;37.10;55.90;;;;;;4907543;29;20080;-72
2023/07/12 14:53:47;;;;;;;4.13;1.90;;;38.60;54.00;;;;;;4906493;29;20037;-71
2023/07/12 14:56:13;;;;;;;3.80;2.10;;;39.30;52.40;;;;;;4907694;29;20036;-73
2023/07/12 14:58:39;;;;;;;3.97;1.70;;;39.70;51.90;;;;;;4907068;29;20031;-72
2023/07/12 15:01:14;;;;;;;4.85;1.90;;;39.50;51.50;;;;;;4907490;29;20100;-72
2023/07/12 15:03:40;;;;;;;3.22;1.73;;;39.50;51.30;;;;;;4906762;29;20056;-70
2023/07/12 15:06:07;;;;;;;5.00;1.92;;;39.90;51.70;;;;;;4907315;29;20033;-73
2023/07/12 15:08:33;;;;;;;;;;;41.50;49.90;;;;;;4907775;29;20099;-72
2023/07/12 15:11:01;;;;;;;6.10;1.75;;;41.70;49.50;;;;;;4906772;29;19918;-72
2023/07/12 15:13:27;;;;;;;5.75;1.90;;;41.00;50.10;;;;;;4907259;29;20145;-71
2023/07/12 15:15:53;;;;;;;3.70;1.38;;;40.60;50.30;;;;;;4906853;29;20239;-73
2023/07/12 15:18:21;;;;;;;3.72;1.75;;;40.30;50.60;;;;;;4907068;29;20033;-72
2023/07/12 15:20:52;;;;;;;5.43;1.70;;;40.20;50.60;;;;;;4921540;29;20082;-72
2023/07/12 15:23:31;;;;;;;3.42;1.73;;;40.30;50.70;;;;;;4907271;29;20045;-73
2023/07/12 15:25:58;;;;;;;4.15;1.55;;;40.20;50.60;;;;;;4906619;29;20372;-71
2023/07/12 15:28:24;;;;;;;2.75;1.52;;;39.20;51.30;;;;;;4907192;29;20039;-72
2023/07/12 15:30:50;;;;;;;4.30;1.63;;;38.20;52.70;;;;;;4906696;29;20036;-70
2023/07/12 15:33:20;;;;;;;3.50;1.73;;;37.70;53.30;;;;;;4908617;29;20056;-72
2023/07/12 15:35:47;;;;;;;3.22;1.67;;;38.00;53.10;;;;;;4910400;29;20105;-74
2023/07/12 15:38:13;;;;;;;6.15;1.95;;;38.30;52.60;;;;;;4910823;29;20036;-72
2023/07/12 15:40:45;;;;;;;4.05;1.60;;;38.10;52.60;;;;;;4910211;29;20079;-73
2023/07/12 15:43:12;;;;;;;3.78;1.95;;;37.50;53.70;;;;;;4911069;29;20096;-73
2023/07/12 15:45:38;;;;;;;4.72;1.90;;;36.90;53.90;;;;;;4910652;29;20028;-71
2023/07/12 15:48:31;;;;;;;3.33;1.90;;;36.20;54.90;;;;;;4910371;29;20218;-73
2023/07/12 15:51:07;;;;;;;4.10;1.75;;;35.50;56.50;;;;;;4908250;29;20049;-73
2023/07/12 15:53:35;;;;;;;3.33;1.42;;;35.40;56.20;;;;;;4910650;29;20126;-72
2023/07/12 15:56:03;;;;;;;4.18;2.28;;;35.50;55.70;;;;;;4909810;29;20251;-71
2023/07/12 15:58:31;;;;;;;3.22;1.75;;;35.10;56.30;;;;;;4910047;29;20040;-72
2023/07/12 16:01:02;;;;;;;3.22;1.60;;;34.70;56.70;;;;;;4909541;29;20040;-72
2023/07/12 16:03:31;;;;;;;3.00;1.35;;;34.50;57.80;;;;;;4910050;29;20338;-71
2023/07/12 16:05:58;;;;;;;3.95;1.73;;;34.80;56.30;;;;;;4909709;29;20036;-73
2023/07/12 16:08:25;;;;;;;6.00;1.65;;;34.40;56.60;;;;;;4910302;29;20043;-72
2023/07/12 16:10:53;;;;;;;3.60;1.63;;;34.40;56.60;;;;;;4909863;29;20033;-72
2023/07/12 16:13:22;;;;;;;3.85;1.90;;;34.10;57.20;;;;;;4910177;29;20032;-72
2023/07/12 16:15:49;;;;;;;3.40;1.75;;;33.90;56.90;;;;;;4909803;29;20332;-72
2023/07/12 16:18:18;;;;;;;3.53;1.63;;;33.40;57.50;;;;;;4909847;29;20032;-70
2023/07/12 16:20:46;;;;;;;3.45;1.65;;;33.00;58.20;;;;;;4909118;29;20047;-71
2023/07/12 16:23:34;;;;;;;4.18;1.77;;;33.20;57.70;;;;;;4910178;29;20048;-70
2023/07/12 16:26:00;;;;;;;3.30;1.60;;;33.10;57.90;;;;;;4909501;29;20032;-72
2023/07/12 16:28:26;;;;;;;2.88;1.67;;;32.70;58.20;;;;;;4909893;29;20374;-71
2023/07/12 16:30:52;;;;;;;2.92;1.50;;;32.20;58.80;;;;;;4909150;29;20310;-72
2023/07/12 16:33:27;;;;;;;3.47;1.63;;;32.30;58.70;;;;;;4910024;29;20096;-72
2023/07/12 16:35:55;;;;;;;5.40;1.80;;;32.30;58.30;;;;;;4909275;29;20226;-72
2023/07/12 16:38:25;;;;;;;4.05;1.50;;;32.40;58.10;;;;;;4924568;29;20037;-71
2023/07/12 16:40:57;;;;;;;4.00;1.88;;;32.50;58.40;;;;;;4909429;29;20309;-70
2023/07/12 16:43:23;;;;;;;4.97;1.95;;;32.50;57.90;;;;;;4909355;29;20043;-71
2023/07/12 16:45:49;;;;;;;3.65;1.52;;;32.50;58.30;;;;;;4908344;29;20210;-73
2023/07/12 16:48:16;;;;;;;3.83;1.65;;;32.50;58.10;;;;;;4909440;29;20079;-72
2023/07/12 16:50:44;;;;;;;3.33;1.67;;;32.20;58.40;;;;;;4909205;29;20040;-71
2023/07/12 16:53:14;;;;;;;3.75;1.48;;;32.00;59.30;;;;;;4909052;29;20051;-71
2023/07/12 16:55:41;;;;;;;4.85;1.73;;;31.90;59.10;;;;;;4909427;29;20088;-71
2023/07/12 16:58:18;;;;;;;4.50;1.52;;;31.70;59.70;;;;;;4908429;29;20036;-71
2023/07/12 17:00:46;;;;;;;4.25;1.67;;;31.20;59.70;;;;;;4908868;29;20043;-71
2023/07/12 17:03:12;;;;;;;3.25;1.30;;;30.40;60.70;;;;;;4909276;29;20053;-71
2023/07/12 17:05:39;;;;;;;4.40;1.40;;;29.90;61.70;;;;;;4909125;29;20063;-70
2023/07/12 17:08:10;;;;;;;5.22;1.60;;;29.50;62.10;;;;;;4908468;29;20036;-72
2023/07/12 17:10:36;;;;;;;3.22;1.48;;;29.20;62.80;;;;;;4909225;29;20033;-73
2023/07/12 17:13:03;;;;;;;3.20;1.50;;;29.10;62.80;;;;;;4907558;29;20072;-72
2023/07/12 17:15:28;;;;;;;4.78;2.08;;;29.20;62.50;;;;;;4909051;29;20037;-71
2023/07/12 17:17:55;;;;;;;6.43;1.73;;;29.10;62.60;;;;;;4908641;29;20319;-72
2023/07/12 17:20:22;;;;;;;4.40;1.45;;;29.10;62.90;;;;;;4908991;29;20039;-72
2023/07/12 17:22:49;;;;;;;3.00;1.40;;;29.30;62.80;;;;;;4908430;29;20037;-72
2023/07/12 17:25:15;;;;;;;6.13;1.42;;;29.90;62.10;;;;;;4909029;29;20031;-71
2023/07/12 17:27:41;;;;;;;4.38;1.58;;;30.40;60.60;;;;;;4908653;29;20024;-73
2023/07/12 17:30:12;;;;;;;3.70;1.35;;;31.00;59.80;;;;;;4907975;29;20092;-72
2023/07/12 17:32:38;;;;;;;5.30;1.58;;;31.80;58.70;;;;;;4908626;29;20024;-73
2023/07/12 17:35:04;;;;;;;3.25;1.55;;;32.60;57.40;;;;;;4922710;29;20027;-71
2023/07/12 17:37:31;;;;;;;3.05;1.60;;;33.60;56.30;;;;;;4908641;29;20024;-71
2023/07/12 17:39:57;;;;;;;3.67;1.38;;;33.70;56.00;;;;;;4908178;29;20168;-73
2023/07/12 17:42:23;;;;;;;4.57;1.77;;;33.40;55.80;;;;;;4908495;29;20027;-72
2023/07/12 17:44:49;;;;;;;4.82;1.40;;;33.00;56.20;;;;;;4907533;29;20080;-74
2023/07/12 17:47:21;;;;;;;2.80;1.40;;;33.00;56.40;;;;;;4914288;29;20024;-74
2023/07/12 17:49:48;;;;;;;3.22;1.50;;;33.40;56.20;;;;;;4910743;29;20059;-73
2023/07/12 17:52:16;;;;;;;3.42;1.48;;;33.80;56.00;;;;;;4907690;29;20226;-72
2023/07/12 17:54:43;;;;;;;3.55;1.50;;;33.90;55.40;;;;;;4907817;29;20056;-72
2023/07/12 17:57:11;;;;;;;2.87;1.40;;;33.80;55.40;;;;;;4907242;29;20080;-71